KOZ weather

Ouzinkie Airport
Ouzinkie, Alaska, United States

Public forecast

Using degrees Fahrenheit for public forecast. Weather courtesy of forecast.io.

METAR (pilot weather report)

Closest report is Kodiak Airport, 10.5 nm (19.5 km) S. Retrieved 2019/07/20 03:53 UTC (52 minutes ago):

PADQ 200353Z 10004KT 10SM BKN048 OVC120 16/12 A3003

TAF (pilot weather forecast)

Forecast is more than 12 hours old.

Closest forecast is Kodiak Airport, 10.5 nm (19.5 km) S. Retrieved 2019/07/19 00:36 UTC (1 day ago):

TAF PADQ 192335Z 2000/2024 13007KT P6SM BKN080 FM200300 06005KT P6SM VCSH BKN080 FM200900 36005KT P6SM VCSH SCT015 BKN025 FM201100 33004KT P6SM -RA BKN015